sensor_id;sensor_type;location;lat;lon;timestamp;temperature;humidity
16200;DHT22;8207;52.494;4.654;2022-12-07T00:00:51;4.80;99.90
16200;DHT22;8207;52.494;4.654;2022-12-07T00:03:18;4.80;99.90
16200;DHT22;8207;52.494;4.654;2022-12-07T00:05:45;4.80;99.90
16200;DHT22;8207;52.494;4.654;2022-12-07T00:08:12;4.90;99.90
16200;DHT22;8207;52.494;4.654;2022-12-07T00:10:40;5.00;99.90
16200;DHT22;8207;52.494;4.654;2022-12-07T00:13:07;5.00;99.90
16200;DHT22;8207;52.494;4.654;2022-12-07T00:15:34;5.00;99.90
16200;DHT22;8207;52.494;4.654;2022-12-07T00:18:01;5.10;99.90
16200;DHT22;8207;52.494;4.654;2022-12-07T00:20:28;5.00;99.90
16200;DHT22;8207;52.494;4.654;2022-12-07T00:22:55;4.90;99.90
16200;DHT22;8207;52.494;4.654;2022-12-07T00:25:22;4.90;99.90
16200;DHT22;8207;52.494;4.654;2022-12-07T00:27:52;4.80;99.90
16200;DHT22;8207;52.494;4.654;2022-12-07T00:30:19;4.70;99.90
16200;DHT22;8207;52.494;4.654;2022-12-07T00:32:46;4.60;99.90
16200;DHT22;8207;52.494;4.654;2022-12-07T00:35:13;4.60;99.90
16200;DHT22;8207;52.494;4.654;2022-12-07T00:37:40;4.50;99.90
16200;DHT22;8207;52.494;4.654;2022-12-07T00:40:08;4.50;99.90
16200;DHT22;8207;52.494;4.654;2022-12-07T00:42:35;4.40;99.90
16200;DHT22;8207;52.494;4.654;2022-12-07T00:45:07;4.40;99.90
16200;DHT22;8207;52.494;4.654;2022-12-07T00:47:34;4.40;99.90
16200;DHT22;8207;52.494;4.654;2022-12-07T00:50:01;4.50;99.90
16200;DHT22;8207;52.494;4.654;2022-12-07T00:52:28;4.60;99.90
16200;DHT22;8207;52.494;4.654;2022-12-07T00:54:56;4.60;99.90
16200;DHT22;8207;52.494;4.654;2022-12-07T00:57:23;4.70;99.90
16200;DHT22;8207;52.494;4.654;2022-12-07T00:59:49;4.70;99.90
16200;DHT22;8207;52.494;4.654;2022-12-07T01:02:22;4.70;99.90
16200;DHT22;8207;52.494;4.654;2022-12-07T01:04:48;4.70;99.90
16200;DHT22;8207;52.494;4.654;2022-12-07T01:07:18;4.70;99.90
16200;DHT22;8207;52.494;4.654;2022-12-07T01:09:45;4.70;99.90
16200;DHT22;8207;52.494;4.654;2022-12-07T01:12:13;4.60;99.90
16200;DHT22;8207;52.494;4.654;2022-12-07T01:14:41;4.60;99.90
16200;DHT22;8207;52.494;4.654;2022-12-07T01:17:08;4.60;99.90
16200;DHT22;8207;52.494;4.654;2022-12-07T01:19:38;4.50;99.90
16200;DHT22;8207;52.494;4.654;2022-12-07T01:22:05;4.50;99.90
16200;DHT22;8207;52.494;4.654;2022-12-07T01:24:31;4.40;99.90
16200;DHT22;8207;52.494;4.654;2022-12-07T01:26:58;4.40;99.90
16200;DHT22;8207;52.494;4.654;2022-12-07T01:29:25;4.30;99.90
16200;DHT22;8207;52.494;4.654;2022-12-07T01:31:52;4.30;99.90
16200;DHT22;8207;52.494;4.654;2022-12-07T01:34:19;4.20;99.90
16200;DHT22;8207;52.494;4.654;2022-12-07T01:36:48;4.20;99.90
16200;DHT22;8207;52.494;4.654;2022-12-07T01:39:15;4.20;99.90
16200;DHT22;8207;52.494;4.654;2022-12-07T01:41:42;4.20;99.90
16200;DHT22;8207;52.494;4.654;2022-12-07T01:44:13;4.20;99.90
16200;DHT22;8207;52.494;4.654;2022-12-07T01:46:44;4.20;99.90
16200;DHT22;8207;52.494;4.654;2022-12-07T01:49:16;4.20;99.90
16200;DHT22;8207;52.494;4.654;2022-12-07T01:51:45;4.20;99.90
16200;DHT22;8207;52.494;4.654;2022-12-07T01:54:15;4.20;99.90
16200;DHT22;8207;52.494;4.654;2022-12-07T01:56:45;4.10;99.90
16200;DHT22;8207;52.494;4.654;2022-12-07T01:59:15;4.20;99.90
16200;DHT22;8207;52.494;4.654;2022-12-07T02:01:43;4.20;99.90
16200;DHT22;8207;52.494;4.654;2022-12-07T02:04:11;4.30;99.90
16200;DHT22;8207;52.494;4.654;2022-12-07T02:06:38;4.20;99.90
16200;DHT22;8207;52.494;4.654;2022-12-07T02:09:06;4.20;99.90
16200;DHT22;8207;52.494;4.654;2022-12-07T02:11:34;4.20;99.90
16200;DHT22;8207;52.494;4.654;2022-12-07T02:14:01;4.20;99.90
16200;DHT22;8207;52.494;4.654;2022-12-07T02:16:34;4.30;99.90
16200;DHT22;8207;52.494;4.654;2022-12-07T02:19:34;4.30;99.90
16200;DHT22;8207;52.494;4.654;2022-12-07T02:22:18;4.30;99.90
16200;DHT22;8207;52.494;4.654;2022-12-07T02:24:54;4.40;99.90
16200;DHT22;8207;52.494;4.654;2022-12-07T02:27:46;4.40;99.90
16200;DHT22;8207;52.494;4.654;2022-12-07T02:30:17;4.40;99.90
16200;DHT22;8207;52.494;4.654;2022-12-07T02:32:51;4.50;99.90
16200;DHT22;8207;52.494;4.654;2022-12-07T02:35:25;4.60;99.90
16200;DHT22;8207;52.494;4.654;2022-12-07T02:38:01;4.60;99.90
16200;DHT22;8207;52.494;4.654;2022-12-07T02:40:32;4.70;99.90
16200;DHT22;8207;52.494;4.654;2022-12-07T02:43:06;4.70;99.90
16200;DHT22;8207;52.494;4.654;2022-12-07T02:45:38;4.80;99.90
16200;DHT22;8207;52.494;4.654;2022-12-07T02:48:06;5.00;99.90
16200;DHT22;8207;52.494;4.654;2022-12-07T02:50:33;5.10;99.90
16200;DHT22;8207;52.494;4.654;2022-12-07T02:53:00;5.20;99.90
16200;DHT22;8207;52.494;4.654;2022-12-07T02:55:30;5.30;99.90
16200;DHT22;8207;52.494;4.654;2022-12-07T02:58:20;5.40;99.90
16200;DHT22;8207;52.494;4.654;2022-12-07T03:00:58;5.50;99.90
16200;DHT22;8207;52.494;4.654;2022-12-07T03:03:28;5.40;99.90
16200;DHT22;8207;52.494;4.654;2022-12-07T03:06:11;5.50;99.90
16200;DHT22;8207;52.494;4.654;2022-12-07T03:08:49;5.60;99.90
16200;DHT22;8207;52.494;4.654;2022-12-07T03:11:22;5.60;99.90
16200;DHT22;8207;52.494;4.654;2022-12-07T03:13:56;5.60;99.90
16200;DHT22;8207;52.494;4.654;2022-12-07T03:16:27;5.60;99.90
16200;DHT22;8207;52.494;4.654;2022-12-07T03:18:59;5.60;99.90
16200;DHT22;8207;52.494;4.654;2022-12-07T03:21:31;5.50;99.90
16200;DHT22;8207;52.494;4.654;2022-12-07T03:24:00;5.60;99.90
16200;DHT22;8207;52.494;4.654;2022-12-07T03:26:32;5.60;99.90
16200;DHT22;8207;52.494;4.654;2022-12-07T03:29:05;5.60;99.90
16200;DHT22;8207;52.494;4.654;2022-12-07T03:31:39;5.60;99.90
16200;DHT22;8207;52.494;4.654;2022-12-07T03:34:11;5.80;99.90
16200;DHT22;8207;52.494;4.654;2022-12-07T03:36:43;5.90;99.90
16200;DHT22;8207;52.494;4.654;2022-12-07T03:39:19;5.90;99.90
16200;DHT22;8207;52.494;4.654;2022-12-07T03:41:49;6.00;99.90
16200;DHT22;8207;52.494;4.654;2022-12-07T03:44:16;6.00;99.90
16200;DHT22;8207;52.494;4.654;2022-12-07T03:46:50;6.00;99.90
16200;DHT22;8207;52.494;4.654;2022-12-07T03:49:21;6.00;99.90
16200;DHT22;8207;52.494;4.654;2022-12-07T03:51:54;6.00;99.90
16200;DHT22;8207;52.494;4.654;2022-12-07T03:54:28;6.00;99.90
16200;DHT22;8207;52.494;4.654;2022-12-07T03:56:58;6.00;99.90
16200;DHT22;8207;52.494;4.654;2022-12-07T03:59:25;6.00;99.90
16200;DHT22;8207;52.494;4.654;2022-12-07T04:01:56;6.00;99.90
16200;DHT22;8207;52.494;4.654;2022-12-07T04:04:24;6.10;99.90
16200;DHT22;8207;52.494;4.654;2022-12-07T04:06:51;6.10;99.90
16200;DHT22;8207;52.494;4.654;2022-12-07T04:09:18;6.10;99.90
16200;DHT22;8207;52.494;4.654;2022-12-07T04:11:45;6.10;99.90
16200;DHT22;8207;52.494;4.654;2022-12-07T04:14:12;6.10;99.90
16200;DHT22;8207;52.494;4.654;2022-12-07T04:16:45;6.10;99.90
16200;DHT22;8207;52.494;4.654;2022-12-07T04:19:15;6.10;99.90
16200;DHT22;8207;52.494;4.654;2022-12-07T04:21:42;6.10;99.90
16200;DHT22;8207;52.494;4.654;2022-12-07T04:24:09;6.20;99.90
16200;DHT22;8207;52.494;4.654;2022-12-07T04:26:36;6.30;99.90
16200;DHT22;8207;52.494;4.654;2022-12-07T04:29:03;6.30;99.90
16200;DHT22;8207;52.494;4.654;2022-12-07T04:31:30;6.30;99.90
16200;DHT22;8207;52.494;4.654;2022-12-07T04:33:57;6.20;99.90
16200;DHT22;8207;52.494;4.654;2022-12-07T04:36:25;6.10;99.90
16200;DHT22;8207;52.494;4.654;2022-12-07T04:38:53;6.10;99.90
16200;DHT22;8207;52.494;4.654;2022-12-07T04:41:21;6.10;99.90
16200;DHT22;8207;52.494;4.654;2022-12-07T04:43:52;6.10;99.90
16200;DHT22;8207;52.494;4.654;2022-12-07T04:46:19;6.10;99.90
16200;DHT22;8207;52.494;4.654;2022-12-07T04:48:46;6.00;99.90
16200;DHT22;8207;52.494;4.654;2022-12-07T04:51:14;5.90;99.90
16200;DHT22;8207;52.494;4.654;2022-12-07T04:53:43;5.80;99.90
16200;DHT22;8207;52.494;4.654;2022-12-07T04:56:10;5.70;99.90
16200;DHT22;8207;52.494;4.654;2022-12-07T04:58:37;5.60;99.90
16200;DHT22;8207;52.494;4.654;2022-12-07T05:01:04;5.50;99.90
16200;DHT22;8207;52.494;4.654;2022-12-07T05:03:31;5.40;99.90
16200;DHT22;8207;52.494;4.654;2022-12-07T05:05:58;5.40;99.90
16200;DHT22;8207;52.494;4.654;2022-12-07T05:08:24;5.30;99.90
16200;DHT22;8207;52.494;4.654;2022-12-07T05:10:53;5.20;99.90
16200;DHT22;8207;52.494;4.654;2022-12-07T05:13:20;5.20;99.90
16200;DHT22;8207;52.494;4.654;2022-12-07T05:15:46;5.20;99.90
16200;DHT22;8207;52.494;4.654;2022-12-07T05:18:13;5.10;99.90
16200;DHT22;8207;52.494;4.654;2022-12-07T05:20:41;5.10;99.90
16200;DHT22;8207;52.494;4.654;2022-12-07T05:23:08;5.10;99.90
16200;DHT22;8207;52.494;4.654;2022-12-07T05:25:35;5.00;99.90
16200;DHT22;8207;52.494;4.654;2022-12-07T05:28:04;5.00;99.90
16200;DHT22;8207;52.494;4.654;2022-12-07T05:30:31;5.00;99.90
16200;DHT22;8207;52.494;4.654;2022-12-07T05:32:58;5.00;99.90
16200;DHT22;8207;52.494;4.654;2022-12-07T05:35:25;4.90;99.90
16200;DHT22;8207;52.494;4.654;2022-12-07T05:37:52;4.90;99.90
16200;DHT22;8207;52.494;4.654;2022-12-07T05:40:19;4.80;99.90
16200;DHT22;8207;52.494;4.654;2022-12-07T05:42:46;4.80;99.90
16200;DHT22;8207;52.494;4.654;2022-12-07T05:45:14;4.70;99.90
16200;DHT22;8207;52.494;4.654;2022-12-07T05:47:41;4.60;99.90
16200;DHT22;8207;52.494;4.654;2022-12-07T05:50:08;4.60;99.90
16200;DHT22;8207;52.494;4.654;2022-12-07T05:52:35;4.70;99.90
16200;DHT22;8207;52.494;4.654;2022-12-07T05:55:02;4.70;99.90
16200;DHT22;8207;52.494;4.654;2022-12-07T05:57:29;4.70;99.90
16200;DHT22;8207;52.494;4.654;2022-12-07T05:59:56;4.80;99.90
16200;DHT22;8207;52.494;4.654;2022-12-07T06:02:23;4.80;99.90
16200;DHT22;8207;52.494;4.654;2022-12-07T06:04:50;4.80;99.90
16200;DHT22;8207;52.494;4.654;2022-12-07T06:07:17;4.80;99.90
16200;DHT22;8207;52.494;4.654;2022-12-07T06:09:44;4.80;99.90
16200;DHT22;8207;52.494;4.654;2022-12-07T06:12:12;4.90;99.90
16200;DHT22;8207;52.494;4.654;2022-12-07T06:14:56;4.80;99.90
16200;DHT22;8207;52.494;4.654;2022-12-07T06:17:24;4.80;99.90
16200;DHT22;8207;52.494;4.654;2022-12-07T06:19:51;4.80;99.90
16200;DHT22;8207;52.494;4.654;2022-12-07T06:22:18;4.80;99.90
16200;DHT22;8207;52.494;4.654;2022-12-07T06:24:45;4.70;99.90
16200;DHT22;8207;52.494;4.654;2022-12-07T06:27:12;4.70;99.90
16200;DHT22;8207;52.494;4.654;2022-12-07T06:29:39;4.60;99.90
16200;DHT22;8207;52.494;4.654;2022-12-07T06:32:06;4.60;99.90
16200;DHT22;8207;52.494;4.654;2022-12-07T06:34:34;4.50;99.90
16200;DHT22;8207;52.494;4.654;2022-12-07T06:37:01;4.50;99.90
16200;DHT22;8207;52.494;4.654;2022-12-07T06:39:29;4.40;99.90
16200;DHT22;8207;52.494;4.654;2022-12-07T06:41:56;4.40;99.90
16200;DHT22;8207;52.494;4.654;2022-12-07T06:44:24;4.30;99.90
16200;DHT22;8207;52.494;4.654;2022-12-07T06:46:52;4.30;99.90
16200;DHT22;8207;52.494;4.654;2022-12-07T06:49:19;4.20;99.90
16200;DHT22;8207;52.494;4.654;2022-12-07T06:51:48;4.10;99.90
16200;DHT22;8207;52.494;4.654;2022-12-07T06:54:15;4.10;99.90
16200;DHT22;8207;52.494;4.654;2022-12-07T06:56:43;4.00;99.90
16200;DHT22;8207;52.494;4.654;2022-12-07T06:59:10;4.00;99.90
16200;DHT22;8207;52.494;4.654;2022-12-07T07:01:36;4.00;99.90
16200;DHT22;8207;52.494;4.654;2022-12-07T07:04:04;4.00;99.90
16200;DHT22;8207;52.494;4.654;2022-12-07T07:06:32;4.00;99.90
16200;DHT22;8207;52.494;4.654;2022-12-07T07:09:00;4.10;99.90
16200;DHT22;8207;52.494;4.654;2022-12-07T07:11:27;4.30;99.90
16200;DHT22;8207;52.494;4.654;2022-12-07T07:13:54;4.50;99.90
16200;DHT22;8207;52.494;4.654;2022-12-07T07:16:27;4.80;99.90
16200;DHT22;8207;52.494;4.654;2022-12-07T07:18:54;5.00;99.90
16200;DHT22;8207;52.494;4.654;2022-12-07T07:21:21;5.00;99.90
16200;DHT22;8207;52.494;4.654;2022-12-07T07:23:48;5.00;99.90
16200;DHT22;8207;52.494;4.654;2022-12-07T07:26:16;5.10;99.90
16200;DHT22;8207;52.494;4.654;2022-12-07T07:28:43;5.20;99.90
16200;DHT22;8207;52.494;4.654;2022-12-07T07:31:10;5.20;99.90
16200;DHT22;8207;52.494;4.654;2022-12-07T07:33:37;5.20;99.90
16200;DHT22;8207;52.494;4.654;2022-12-07T07:36:04;5.20;99.90
16200;DHT22;8207;52.494;4.654;2022-12-07T07:38:31;5.20;99.90
16200;DHT22;8207;52.494;4.654;2022-12-07T07:40:58;5.20;99.90
16200;DHT22;8207;52.494;4.654;2022-12-07T07:43:27;5.20;99.90
16200;DHT22;8207;52.494;4.654;2022-12-07T07:45:54;5.20;99.90
16200;DHT22;8207;52.494;4.654;2022-12-07T07:48:21;5.20;99.90
16200;DHT22;8207;52.494;4.654;2022-12-07T07:50:50;5.20;99.90
16200;DHT22;8207;52.494;4.654;2022-12-07T07:53:17;5.20;99.90
16200;DHT22;8207;52.494;4.654;2022-12-07T07:55:50;5.20;99.90
16200;DHT22;8207;52.494;4.654;2022-12-07T07:58:17;5.10;99.90
16200;DHT22;8207;52.494;4.654;2022-12-07T08:00:46;5.10;99.90
16200;DHT22;8207;52.494;4.654;2022-12-07T08:03:13;5.10;99.90
16200;DHT22;8207;52.494;4.654;2022-12-07T08:05:39;5.10;99.90
16200;DHT22;8207;52.494;4.654;2022-12-07T08:08:06;5.10;99.90
16200;DHT22;8207;52.494;4.654;2022-12-07T08:10:33;5.10;99.90
16200;DHT22;8207;52.494;4.654;2022-12-07T08:13:01;5.20;99.90
16200;DHT22;8207;52.494;4.654;2022-12-07T08:15:41;5.20;99.90
16200;DHT22;8207;52.494;4.654;2022-12-07T08:18:10;5.30;99.90
16200;DHT22;8207;52.494;4.654;2022-12-07T08:20:38;5.20;99.90
16200;DHT22;8207;52.494;4.654;2022-12-07T08:23:05;5.30;99.90
16200;DHT22;8207;52.494;4.654;2022-12-07T08:25:33;5.20;99.90
16200;DHT22;8207;52.494;4.654;2022-12-07T08:28:00;5.20;99.90
16200;DHT22;8207;52.494;4.654;2022-12-07T08:30:27;5.20;99.90
16200;DHT22;8207;52.494;4.654;2022-12-07T08:32:56;5.20;99.90
16200;DHT22;8207;52.494;4.654;2022-12-07T08:35:25;5.20;99.90
16200;DHT22;8207;52.494;4.654;2022-12-07T08:37:54;5.20;99.90
16200;DHT22;8207;52.494;4.654;2022-12-07T08:40:23;5.20;99.90
16200;DHT22;8207;52.494;4.654;2022-12-07T08:42:50;5.20;99.90
16200;DHT22;8207;52.494;4.654;2022-12-07T08:45:18;5.20;99.90
16200;DHT22;8207;52.494;4.654;2022-12-07T08:47:49;5.20;99.90
16200;DHT22;8207;52.494;4.654;2022-12-07T08:50:17;5.20;99.90
16200;DHT22;8207;52.494;4.654;2022-12-07T08:52:49;5.30;99.90
16200;DHT22;8207;52.494;4.654;2022-12-07T08:55:17;5.40;99.90
16200;DHT22;8207;52.494;4.654;2022-12-07T08:57:45;5.40;99.90
16200;DHT22;8207;52.494;4.654;2022-12-07T09:00:13;5.40;99.90
16200;DHT22;8207;52.494;4.654;2022-12-07T09:02:40;5.40;99.90
16200;DHT22;8207;52.494;4.654;2022-12-07T09:05:07;5.40;99.90
16200;DHT22;8207;52.494;4.654;2022-12-07T09:07:35;5.40;99.90
16200;DHT22;8207;52.494;4.654;2022-12-07T09:10:05;5.40;99.90
16200;DHT22;8207;52.494;4.654;2022-12-07T09:12:32;5.50;99.90
16200;DHT22;8207;52.494;4.654;2022-12-07T09:14:59;5.60;99.90
16200;DHT22;8207;52.494;4.654;2022-12-07T09:17:27;5.70;99.90
16200;DHT22;8207;52.494;4.654;2022-12-07T09:19:54;5.70;99.90
16200;DHT22;8207;52.494;4.654;2022-12-07T09:22:20;5.80;99.90
16200;DHT22;8207;52.494;4.654;2022-12-07T09:24:48;5.80;99.90
16200;DHT22;8207;52.494;4.654;2022-12-07T09:27:16;5.80;99.90
16200;DHT22;8207;52.494;4.654;2022-12-07T09:29:44;5.90;99.90
16200;DHT22;8207;52.494;4.654;2022-12-07T09:32:10;6.10;99.90
16200;DHT22;8207;52.494;4.654;2022-12-07T09:34:38;6.10;99.90
16200;DHT22;8207;52.494;4.654;2022-12-07T09:37:05;6.20;99.90
16200;DHT22;8207;52.494;4.654;2022-12-07T09:39:32;6.20;99.90
16200;DHT22;8207;52.494;4.654;2022-12-07T09:42:02;6.20;99.90
16200;DHT22;8207;52.494;4.654;2022-12-07T09:44:31;6.20;99.90
16200;DHT22;8207;52.494;4.654;2022-12-07T09:46:59;6.10;99.90
16200;DHT22;8207;52.494;4.654;2022-12-07T09:49:28;6.10;99.90
16200;DHT22;8207;52.494;4.654;2022-12-07T09:52:02;6.10;99.90
16200;DHT22;8207;52.494;4.654;2022-12-07T09:54:30;6.10;99.90
16200;DHT22;8207;52.494;4.654;2022-12-07T09:56:58;6.10;99.90
16200;DHT22;8207;52.494;4.654;2022-12-07T09:59:25;6.10;99.90
16200;DHT22;8207;52.494;4.654;2022-12-07T10:01:53;6.10;99.90
16200;DHT22;8207;52.494;4.654;2022-12-07T10:04:22;6.10;99.90
16200;DHT22;8207;52.494;4.654;2022-12-07T10:06:50;6.20;99.90
16200;DHT22;8207;52.494;4.654;2022-12-07T10:09:19;6.20;99.90
16200;DHT22;8207;52.494;4.654;2022-12-07T10:12:02;6.20;99.90
16200;DHT22;8207;52.494;4.654;2022-12-07T10:14:31;6.20;99.90
16200;DHT22;8207;52.494;4.654;2022-12-07T10:17:01;6.20;99.90
16200;DHT22;8207;52.494;4.654;2022-12-07T10:19:29;6.30;99.90
16200;DHT22;8207;52.494;4.654;2022-12-07T10:22:09;6.30;99.90
16200;DHT22;8207;52.494;4.654;2022-12-07T10:24:36;6.40;99.90
16200;DHT22;8207;52.494;4.654;2022-12-07T10:27:05;6.40;99.90
16200;DHT22;8207;52.494;4.654;2022-12-07T10:29:34;6.40;99.90
16200;DHT22;8207;52.494;4.654;2022-12-07T10:32:30;6.50;99.90
16200;DHT22;8207;52.494;4.654;2022-12-07T10:35:18;6.50;99.90
16200;DHT22;8207;52.494;4.654;2022-12-07T10:37:46;6.60;99.90
16200;DHT22;8207;52.494;4.654;2022-12-07T10:40:26;6.70;99.90
16200;DHT22;8207;52.494;4.654;2022-12-07T10:43:17;6.80;99.90
16200;DHT22;8207;52.494;4.654;2022-12-07T10:46:07;7.00;99.90
16200;DHT22;8207;52.494;4.654;2022-12-07T10:48:49;7.20;99.90
16200;DHT22;8207;52.494;4.654;2022-12-07T10:51:22;7.30;99.90
16200;DHT22;8207;52.494;4.654;2022-12-07T10:53:59;7.40;99.90
16200;DHT22;8207;52.494;4.654;2022-12-07T10:56:40;7.50;99.90
16200;DHT22;8207;52.494;4.654;2022-12-07T10:59:29;7.40;99.90
16200;DHT22;8207;52.494;4.654;2022-12-07T11:02:24;7.40;99.90
16200;DHT22;8207;52.494;4.654;2022-12-07T11:05:03;7.30;99.90
16200;DHT22;8207;52.494;4.654;2022-12-07T11:07:43;7.30;99.90
16200;DHT22;8207;52.494;4.654;2022-12-07T11:10:16;7.40;99.90
16200;DHT22;8207;52.494;4.654;2022-12-07T11:12:57;7.50;99.90
16200;DHT22;8207;52.494;4.654;2022-12-07T11:15:32;7.40;99.90
16200;DHT22;8207;52.494;4.654;2022-12-07T11:18:07;7.30;99.90
16200;DHT22;8207;52.494;4.654;2022-12-07T11:20:44;7.20;99.90
16200;DHT22;8207;52.494;4.654;2022-12-07T11:23:18;7.20;99.90
16200;DHT22;8207;52.494;4.654;2022-12-07T11:25:54;7.10;99.90
16200;DHT22;8207;52.494;4.654;2022-12-07T11:28:38;7.10;99.90
16200;DHT22;8207;52.494;4.654;2022-12-07T11:31:13;7.10;99.90
16200;DHT22;8207;52.494;4.654;2022-12-07T11:33:47;7.10;99.90
16200;DHT22;8207;52.494;4.654;2022-12-07T11:36:32;7.10;99.90
16200;DHT22;8207;52.494;4.654;2022-12-07T11:39:02;7.10;99.90
16200;DHT22;8207;52.494;4.654;2022-12-07T11:41:34;7.20;99.90
16200;DHT22;8207;52.494;4.654;2022-12-07T11:44:05;7.20;99.90
16200;DHT22;8207;52.494;4.654;2022-12-07T11:46:43;7.20;99.90
16200;DHT22;8207;52.494;4.654;2022-12-07T11:49:18;7.30;99.90
16200;DHT22;8207;52.494;4.654;2022-12-07T11:51:50;7.40;99.90
16200;DHT22;8207;52.494;4.654;2022-12-07T11:54:21;7.40;99.90
16200;DHT22;8207;52.494;4.654;2022-12-07T11:56:51;7.60;99.90
16200;DHT22;8207;52.494;4.654;2022-12-07T11:59:25;7.60;99.90
16200;DHT22;8207;52.494;4.654;2022-12-07T12:02:00;7.60;99.90
16200;DHT22;8207;52.494;4.654;2022-12-07T12:04:40;7.70;99.90
16200;DHT22;8207;52.494;4.654;2022-12-07T12:07:16;7.70;99.90
16200;DHT22;8207;52.494;4.654;2022-12-07T12:09:49;7.70;99.90
16200;DHT22;8207;52.494;4.654;2022-12-07T12:12:40;7.60;99.90
16200;DHT22;8207;52.494;4.654;2022-12-07T12:15:26;7.50;99.90
16200;DHT22;8207;52.494;4.654;2022-12-07T12:18:21;7.40;99.90
16200;DHT22;8207;52.494;4.654;2022-12-07T12:20:55;7.40;99.90
16200;DHT22;8207;52.494;4.654;2022-12-07T12:23:27;7.40;99.90
16200;DHT22;8207;52.494;4.654;2022-12-07T12:25:58;7.40;99.90
16200;DHT22;8207;52.494;4.654;2022-12-07T12:28:29;7.40;99.90
16200;DHT22;8207;52.494;4.654;2022-12-07T12:31:09;7.30;99.90
16200;DHT22;8207;52.494;4.654;2022-12-07T12:33:38;7.30;99.90
16200;DHT22;8207;52.494;4.654;2022-12-07T12:36:28;7.30;99.90
16200;DHT22;8207;52.494;4.654;2022-12-07T12:39:12;7.30;99.90
16200;DHT22;8207;52.494;4.654;2022-12-07T12:42:12;7.30;99.90
16200;DHT22;8207;52.494;4.654;2022-12-07T12:45:17;7.30;99.90
16200;DHT22;8207;52.494;4.654;2022-12-07T12:48:02;7.40;99.90
16200;DHT22;8207;52.494;4.654;2022-12-07T12:50:31;7.40;99.90
16200;DHT22;8207;52.494;4.654;2022-12-07T12:59:26;7.70;99.90
16200;DHT22;8207;52.494;4.654;2022-12-07T13:01:56;7.70;99.90
16200;DHT22;8207;52.494;4.654;2022-12-07T13:05:03;7.80;99.90
16200;DHT22;8207;52.494;4.654;2022-12-07T13:07:54;7.90;99.90
16200;DHT22;8207;52.494;4.654;2022-12-07T13:10:36;7.90;99.90
16200;DHT22;8207;52.494;4.654;2022-12-07T13:22:07;8.30;99.90
16200;DHT22;8207;52.494;4.654;2022-12-07T13:24:55;8.30;99.90
16200;DHT22;8207;52.494;4.654;2022-12-07T13:27:22;8.30;99.90
16200;DHT22;8207;52.494;4.654;2022-12-07T13:29:51;8.30;99.90
16200;DHT22;8207;52.494;4.654;2022-12-07T13:32:23;8.20;99.90
16200;DHT22;8207;52.494;4.654;2022-12-07T13:34:51;8.20;99.90
16200;DHT22;8207;52.494;4.654;2022-12-07T13:37:21;8.10;99.90
16200;DHT22;8207;52.494;4.654;2022-12-07T13:39:51;8.10;99.90
16200;DHT22;8207;52.494;4.654;2022-12-07T13:42:24;8.00;99.90
16200;DHT22;8207;52.494;4.654;2022-12-07T13:44:51;7.90;99.90
16200;DHT22;8207;52.494;4.654;2022-12-07T13:47:34;7.80;99.90
16200;DHT22;8207;52.494;4.654;2022-12-07T13:50:23;7.70;99.90
16200;DHT22;8207;52.494;4.654;2022-12-07T13:52:50;7.70;99.90
16200;DHT22;8207;52.494;4.654;2022-12-07T13:55:21;7.60;99.90
16200;DHT22;8207;52.494;4.654;2022-12-07T13:57:50;7.60;99.90
16200;DHT22;8207;52.494;4.654;2022-12-07T14:00:19;7.60;99.90
16200;DHT22;8207;52.494;4.654;2022-12-07T14:02:57;7.50;99.90
16200;DHT22;8207;52.494;4.654;2022-12-07T14:05:26;7.50;99.90
16200;DHT22;8207;52.494;4.654;2022-12-07T14:07:55;7.40;99.90
16200;DHT22;8207;52.494;4.654;2022-12-07T14:10:25;7.40;99.90
16200;DHT22;8207;52.494;4.654;2022-12-07T14:12:51;7.30;99.90
16200;DHT22;8207;52.494;4.654;2022-12-07T14:15:21;7.30;99.90
16200;DHT22;8207;52.494;4.654;2022-12-07T14:17:52;7.40;99.90
16200;DHT22;8207;52.494;4.654;2022-12-07T14:20:32;7.40;99.90
16200;DHT22;8207;52.494;4.654;2022-12-07T14:22:59;7.40;99.90
16200;DHT22;8207;52.494;4.654;2022-12-07T14:25:44;7.40;99.90
16200;DHT22;8207;52.494;4.654;2022-12-07T14:28:25;7.40;99.90
16200;DHT22;8207;52.494;4.654;2022-12-07T14:30:52;7.30;99.90
16200;DHT22;8207;52.494;4.654;2022-12-07T14:33:19;7.30;99.90
16200;DHT22;8207;52.494;4.654;2022-12-07T14:35:48;7.50;99.90
16200;DHT22;8207;52.494;4.654;2022-12-07T14:38:15;7.40;99.90
16200;DHT22;8207;52.494;4.654;2022-12-07T14:40:44;7.40;99.90
16200;DHT22;8207;52.494;4.654;2022-12-07T14:43:12;7.30;99.90
16200;DHT22;8207;52.494;4.654;2022-12-07T14:45:41;7.30;99.90
16200;DHT22;8207;52.494;4.654;2022-12-07T14:48:11;7.20;99.90
16200;DHT22;8207;52.494;4.654;2022-12-07T14:50:41;7.20;99.90
16200;DHT22;8207;52.494;4.654;2022-12-07T14:53:13;7.20;99.90
16200;DHT22;8207;52.494;4.654;2022-12-07T14:55:40;7.20;99.90
16200;DHT22;8207;52.494;4.654;2022-12-07T14:58:12;7.30;99.90
16200;DHT22;8207;52.494;4.654;2022-12-07T15:00:40;7.30;99.90
16200;DHT22;8207;52.494;4.654;2022-12-07T15:03:06;7.40;99.90
16200;DHT22;8207;52.494;4.654;2022-12-07T15:05:33;7.40;99.90
16200;DHT22;8207;52.494;4.654;2022-12-07T15:08:01;7.40;99.90
16200;DHT22;8207;52.494;4.654;2022-12-07T15:10:31;7.30;99.90
16200;DHT22;8207;52.494;4.654;2022-12-07T15:12:59;7.20;99.90
16200;DHT22;8207;52.494;4.654;2022-12-07T15:15:46;7.20;99.90
16200;DHT22;8207;52.494;4.654;2022-12-07T15:18:13;7.30;99.90
16200;DHT22;8207;52.494;4.654;2022-12-07T15:20:40;7.30;99.90
16200;DHT22;8207;52.494;4.654;2022-12-07T15:23:07;7.20;99.90
16200;DHT22;8207;52.494;4.654;2022-12-07T15:25:35;7.20;99.90
16200;DHT22;8207;52.494;4.654;2022-12-07T15:28:02;7.20;99.90
16200;DHT22;8207;52.494;4.654;2022-12-07T15:30:29;7.30;99.90
16200;DHT22;8207;52.494;4.654;2022-12-07T15:32:56;7.30;99.90
16200;DHT22;8207;52.494;4.654;2022-12-07T15:35:23;7.30;99.90
16200;DHT22;8207;52.494;4.654;2022-12-07T15:37:49;7.20;99.90
16200;DHT22;8207;52.494;4.654;2022-12-07T15:40:16;7.20;99.90
16200;DHT22;8207;52.494;4.654;2022-12-07T15:42:45;7.20;99.90
16200;DHT22;8207;52.494;4.654;2022-12-07T15:45:12;7.10;99.90
16200;DHT22;8207;52.494;4.654;2022-12-07T15:47:40;7.10;99.90
16200;DHT22;8207;52.494;4.654;2022-12-07T15:50:10;7.10;99.90
16200;DHT22;8207;52.494;4.654;2022-12-07T15:52:37;7.00;99.90
16200;DHT22;8207;52.494;4.654;2022-12-07T15:55:05;7.00;99.90
16200;DHT22;8207;52.494;4.654;2022-12-07T15:57:32;7.10;99.90
16200;DHT22;8207;52.494;4.654;2022-12-07T16:00:02;7.10;99.90
16200;DHT22;8207;52.494;4.654;2022-12-07T16:02:29;7.10;99.90
16200;DHT22;8207;52.494;4.654;2022-12-07T16:04:56;7.10;99.90
16200;DHT22;8207;52.494;4.654;2022-12-07T16:07:23;7.10;99.90
16200;DHT22;8207;52.494;4.654;2022-12-07T16:09:50;7.10;99.90
16200;DHT22;8207;52.494;4.654;2022-12-07T16:12:17;7.30;99.90
16200;DHT22;8207;52.494;4.654;2022-12-07T16:14:44;7.30;99.90
16200;DHT22;8207;52.494;4.654;2022-12-07T16:17:12;7.30;99.90
16200;DHT22;8207;52.494;4.654;2022-12-07T16:19:39;7.30;99.90
16200;DHT22;8207;52.494;4.654;2022-12-07T16:22:06;7.30;99.90
16200;DHT22;8207;52.494;4.654;2022-12-07T16:24:33;7.20;99.90
16200;DHT22;8207;52.494;4.654;2022-12-07T16:27:00;7.20;99.90
16200;DHT22;8207;52.494;4.654;2022-12-07T16:29:27;7.10;99.90
16200;DHT22;8207;52.494;4.654;2022-12-07T16:31:53;7.00;99.90
16200;DHT22;8207;52.494;4.654;2022-12-07T16:34:22;7.00;99.90
16200;DHT22;8207;52.494;4.654;2022-12-07T16:36:49;7.00;99.90
16200;DHT22;8207;52.494;4.654;2022-12-07T16:39:16;6.90;99.90